Terminal Aerodrome Forecast
Issued by NWS Cleveland, OH

Home | Current Version | Previous Version | Text Only | Print | Product List | Glossary Off
Versions: 1 2 3 4 5 6 7 8 9 10 11 12 13 14

380
FTUS41 KCLE 132337
TAFTOL
TAF
KTOL 132337Z 1400/1424 07004KT P6SM SCT025 OVC250
     FM140900 07004KT P6SM OVC120
     FM141400 05004KT P6SM OVC060
     FM141800 30004KT P6SM OVC120=

USA.gov is the U.S. government's official web portal to all federal, state and local government web resources and services.